Time;durP1;ratioP1;P1;durP2;ratioP2;P2;SDS_P1;SDS_P2;PMS_P1;PMS_P2;Temp;Humidity;BMP_temperature;BMP_pressure;BME280_temperature;BME280_humidity;BME280_pressure;Samples;Min_cycle;Max_cycle;Signal;HPM_P1;HPM_P2
2023/11/26 00:00:12;;;;;;;4.70;4.30;;;2.30;99.90;;;;;;5056391;28;20033;-77
2023/11/26 00:02:40;;;;;;;5.07;4.60;;;2.50;99.90;;;;;;5054901;28;20041;-79
2023/11/26 00:05:08;;;;;;;4.85;4.40;;;2.40;99.90;;;;;;5056901;28;20044;-78
2023/11/26 00:07:35;;;;;;;4.90;4.50;;;2.30;99.90;;;;;;5043015;28;20048;-80
2023/11/26 00:10:02;;;;;;;4.50;4.10;;;2.30;99.90;;;;;;5058899;28;20103;-76
2023/11/26 00:12:31;;;;;;;4.78;4.15;;;2.20;99.90;;;;;;5057478;28;20049;-77
2023/11/26 00:14:58;;;;;;;5.15;4.70;;;2.20;99.90;;;;;;5063487;28;20090;-78
2023/11/26 00:17:26;;;;;;;7.00;4.40;;;2.10;99.90;;;;;;5059559;28;20048;-80
2023/11/26 00:19:54;;;;;;;4.80;4.40;;;2.30;99.90;;;;;;5056230;28;20069;-78
2023/11/26 00:22:26;;;;;;;4.80;4.38;;;2.30;99.90;;;;;;5047961;28;20493;-81
2023/11/26 00:24:53;;;;;;;4.85;4.45;;;2.10;99.90;;;;;;5052771;28;20044;-74
2023/11/26 00:27:21;;;;;;;4.93;4.53;;;2.00;99.90;;;;;;5046050;28;20042;-80
2023/11/26 00:29:49;;;;;;;4.80;4.40;;;2.00;99.90;;;;;;5037209;28;20369;-81
2023/11/26 00:32:16;;;;;;;4.70;4.30;;;2.00;99.90;;;;;;5034689;28;20040;-77
2023/11/26 00:34:44;;;;;;;54.92;30.52;;;2.10;99.90;;;;;;5054590;28;20468;-73
2023/11/26 00:37:12;;;;;;;5.55;5.05;;;2.50;99.90;;;;;;5051522;28;20034;-79
2023/11/26 00:39:39;;;;;;;4.95;4.50;;;2.10;99.90;;;;;;5038006;28;20069;-75
2023/11/26 00:42:07;;;;;;;4.70;4.30;;;2.00;99.90;;;;;;5039246;28;20407;-75
2023/11/26 00:44:35;;;;;;;4.40;4.00;;;2.00;99.90;;;;;;5054521;28;20453;-75
2023/11/26 00:47:02;;;;;;;4.85;4.43;;;1.90;99.90;;;;;;5036710;28;20165;-76
2023/11/26 00:49:30;;;;;;;4.30;4.00;;;1.90;99.90;;;;;;5058646;28;20064;-75
2023/11/26 00:51:57;;;;;;;4.93;4.53;;;1.90;99.90;;;;;;5061129;28;20055;-76
2023/11/26 00:54:24;;;;;;;4.90;4.50;;;2.10;99.90;;;;;;5063118;28;20039;-74
2023/11/26 00:56:51;;;;;;;5.20;4.70;;;2.00;99.90;;;;;;5063652;28;20041;-73
2023/11/26 00:59:19;;;;;;;5.10;4.60;;;2.00;99.90;;;;;;5057375;28;20042;-75
2023/11/26 01:01:48;;;;;;;5.00;4.60;;;2.20;99.90;;;;;;5057013;28;20037;-79
2023/11/26 01:04:16;;;;;;;4.80;4.40;;;2.20;99.90;;;;;;5058087;28;20407;-79
2023/11/26 01:06:45;;;;;;;5.00;4.60;;;2.10;99.90;;;;;;5048993;28;20043;-76
2023/11/26 01:09:34;;;;;;;5.35;4.85;;;2.10;99.90;;;;;;5046986;28;20044;-80
2023/11/26 01:12:02;;;;;;;6.50;5.28;;;2.20;99.90;;;;;;5049826;28;20049;-78
2023/11/26 01:14:31;;;;;;;5.00;4.60;;;2.10;99.90;;;;;;5037190;28;20043;-74
2023/11/26 01:16:58;;;;;;;4.90;4.50;;;2.30;99.90;;;;;;5056720;28;20044;-78
2023/11/26 01:19:30;;;;;;;5.30;4.90;;;2.20;99.90;;;;;;5057310;28;20482;-88
2023/11/26 01:21:58;;;;;;;5.05;4.55;;;2.30;99.90;;;;;;5059613;28;20032;-84
2023/11/26 01:24:25;;;;;;;6.72;4.88;;;2.30;99.90;;;;;;5062026;28;20096;-76
2023/11/26 01:26:52;;;;;;;5.30;4.90;;;2.40;99.90;;;;;;5051417;28;20036;-71
2023/11/26 01:29:20;;;;;;;5.20;4.70;;;;;;;;;;5053460;28;20065;-79
2023/11/26 01:31:48;;;;;;;5.38;4.88;;;;;;;;;;5048670;28;20656;-74
2023/11/26 09:44:45;;;;;;;15.20;10.55;;;6.60;81.50;;;;;;5122255;27;20375;-78
2023/11/26 09:47:14;;;;;;;42.92;24.88;;;6.30;83.00;;;;;;5086596;28;20059;-79
2023/11/26 09:49:42;;;;;;;8.38;7.55;;;7.50;80.70;;;;;;5090263;28;20055;-74
2023/11/26 09:52:09;;;;;;;4.90;4.50;;;6.70;80.10;;;;;;5086173;28;20455;-71
2023/11/26 09:54:38;;;;;;;6.50;5.90;;;5.90;79.70;;;;;;5086978;28;20059;-76
2023/11/26 09:57:07;;;;;;;9.77;7.57;;;6.80;80.90;;;;;;5086826;28;20047;-75
2023/11/26 09:59:35;;;;;;;18.65;12.05;;;5.90;80.50;;;;;;5100321;28;20111;-71
2023/11/26 10:02:06;;;;;;;6.97;5.43;;;6.80;81.90;;;;;;5105035;28;20130;-74
2023/11/26 10:04:51;;;;;;;4.95;4.45;;;6.40;79.50;;;;;;5102577;28;20039;-72
2023/11/26 10:07:32;;;;;;;4.88;4.22;;;6.10;79.90;;;;;;5103105;28;20118;-74
2023/11/26 10:10:12;;;;;;;5.25;4.75;;;6.40;80.50;;;;;;5102594;28;20431;-78
2023/11/26 10:12:54;;;;;;;5.20;4.50;;;6.30;79.00;;;;;;5086668;28;20059;-75
2023/11/26 10:15:24;;;;;;;4.40;4.00;;;6.80;79.00;;;;;;5088087;28;20058;-70
2023/11/26 10:18:04;;;;;;;5.20;4.70;;;6.40;80.50;;;;;;5102311;28;20070;-77
2023/11/26 10:20:39;;;;;;;5.20;4.70;;;6.50;78.80;;;;;;5070216;28;20047;-76
2023/11/26 10:23:08;;;;;;;6.10;5.50;;;7.00;79.20;;;;;;5101793;28;20345;-76
2023/11/26 10:25:44;;;;;;;5.55;4.70;;;7.60;77.80;;;;;;5102889;28;20032;-80
2023/11/26 10:28:16;;;;;;;6.40;5.10;;;7.60;76.20;;;;;;5072393;28;20043;-75
2023/11/26 10:30:44;;;;;;;4.75;4.32;;;8.40;75.90;;;;;;5064713;28;20043;-74
2023/11/26 10:33:12;;;;;;;4.63;4.10;;;8.00;75.20;;;;;;5069506;28;20028;-81
2023/11/26 10:35:50;;;;;;;4.72;4.18;;;7.70;74.20;;;;;;5105722;28;20390;-75
2023/11/26 10:38:34;;;;;;;4.72;4.22;;;6.80;76.40;;;;;;5103510;28;20123;-74
2023/11/26 10:41:03;;;;;;;4.43;4.03;;;7.30;75.70;;;;;;5103110;28;20043;-74
2023/11/26 10:43:34;;;;;;;5.22;4.65;;;8.40;74.30;;;;;;5100319;28;20477;-76
2023/11/26 10:46:14;;;;;;;7.82;5.72;;;9.40;73.70;;;;;;5099864;28;20043;-72
2023/11/26 10:48:55;;;;;;;38.42;22.08;;;12.80;68.30;;;;;;5102912;28;20032;-75
2023/11/26 10:51:25;;;;;;;;;;;17.90;60.20;;;;;;5101781;28;20104;-75
2023/11/26 10:54:09;;;;;;;7.70;5.07;;;19.70;50.30;;;;;;5104328;28;19922;-79
2023/11/26 10:56:41;;;;;;;7.72;3.75;;;19.80;45.90;;;;;;5088689;28;20036;-75
2023/11/26 10:59:09;;;;;;;3.38;2.97;;;15.10;50.00;;;;;;5090439;28;20032;-75
2023/11/26 11:01:37;;;;;;;6.28;2.95;;;14.00;50.90;;;;;;5088698;28;20028;-76
2023/11/26 11:04:14;;;;;;;4.32;2.92;;;16.80;48.50;;;;;;5091119;28;20059;-74
2023/11/26 11:06:45;;;;;;;3.80;2.70;;;16.70;46.80;;;;;;5099986;28;20104;-76
2023/11/26 11:09:26;;;;;;;3.70;2.40;;;15.40;50.60;;;;;;5087245;28;20032;-75
2023/11/26 11:12:13;;;;;;;3.92;2.50;;;17.10;47.50;;;;;;5089677;28;20700;-72
2023/11/26 11:14:41;;;;;;;4.07;2.60;;;17.10;46.30;;;;;;5080919;28;20124;-73
2023/11/26 11:17:09;;;;;;;24.20;16.45;;;16.40;46.20;;;;;;5088702;28;20036;-75
2023/11/26 11:19:50;;;;;;;154.40;94.05;;;13.60;49.80;;;;;;5087979;28;20036;-75
2023/11/26 11:22:19;;;;;;;135.88;80.30;;;17.20;48.60;;;;;;5090970;28;20035;-77
2023/11/26 11:24:47;;;;;;;65.95;49.42;;;20.10;44.80;;;;;;5090138;28;20036;-74
2023/11/26 11:27:14;;;;;;;6.15;4.15;;;16.10;46.20;;;;;;5083780;28;20467;-73
2023/11/26 11:29:42;;;;;;;3.63;2.60;;;15.30;48.60;;;;;;5087222;28;20118;-71
2023/11/26 11:32:09;;;;;;;5.22;3.03;;;14.80;47.70;;;;;;5088360;28;20028;-72
2023/11/26 11:34:37;;;;;;;4.25;3.10;;;12.00;51.80;;;;;;5085025;28;20036;-76
2023/11/26 11:37:08;;;;;;;4.07;3.10;;;11.60;52.20;;;;;;5085681;28;20475;-76
2023/11/26 11:39:51;;;;;;;71.38;45.15;;;12.80;50.70;;;;;;5082855;28;20036;-74
2023/11/26 11:42:26;;;;;;;10.65;7.13;;;12.10;52.40;;;;;;5064546;28;20387;-76
2023/11/26 11:44:55;;;;;;;5.13;3.80;;;10.20;54.50;;;;;;5090515;28;20040;-73
2023/11/26 11:47:42;;;;;;;4.93;3.63;;;8.70;56.80;;;;;;5083663;28;20035;-75
2023/11/26 11:50:11;;;;;;;4.13;3.30;;;9.00;57.20;;;;;;5090872;28;20040;-73
2023/11/26 11:52:38;;;;;;;5.32;3.67;;;9.30;56.70;;;;;;5086479;28;20035;-72
2023/11/26 11:55:30;;;;;;;4.35;3.80;;;9.20;57.20;;;;;;5080750;28;20037;-80
2023/11/26 11:58:10;;;;;;;6.15;3.70;;;9.00;58.60;;;;;;5084773;28;20449;-73
2023/11/26 12:00:38;;;;;;;4.20;3.70;;;9.60;58.20;;;;;;5079709;28;20475;-73
2023/11/26 12:03:06;;;;;;;4.97;3.78;;;10.10;56.80;;;;;;5076640;28;20779;-75
2023/11/26 12:05:33;;;;;;;4.00;3.42;;;10.80;55.40;;;;;;5084291;28;20063;-74
2023/11/26 12:08:00;;;;;;;4.35;3.78;;;10.70;54.80;;;;;;5076806;28;20044;-71
2023/11/26 12:10:32;;;;;;;4.80;3.70;;;10.20;55.50;;;;;;5081873;28;20132;-73
2023/11/26 12:13:05;;;;;;;4.28;3.67;;;9.80;56.10;;;;;;5062052;28;20048;-76
2023/11/26 12:15:34;;;;;;;4.18;3.78;;;9.10;57.10;;;;;;5085074;28;20061;-70
2023/11/26 12:18:02;;;;;;;4.40;3.92;;;8.70;59.20;;;;;;5081832;28;20120;-72
2023/11/26 12:20:29;;;;;;;4.97;3.80;;;8.60;59.80;;;;;;5079511;28;20442;-74
2023/11/26 12:22:57;;;;;;;4.88;4.00;;;8.30;60.90;;;;;;5083711;28;20107;-77
2023/11/26 12:25:25;;;;;;;4.72;4.25;;;10.60;57.90;;;;;;5080252;28;20111;-72
2023/11/26 12:28:02;;;;;;;4.25;3.75;;;14.50;53.60;;;;;;5082674;28;20035;-73
2023/11/26 12:30:30;;;;;;;4.93;3.92;;;18.40;48.30;;;;;;5082422;28;20059;-74
2023/11/26 12:32:58;;;;;;;5.35;3.80;;;20.50;45.20;;;;;;5087101;28;20032;-79
2023/11/26 12:35:28;;;;;;;5.18;3.70;;;21.90;42.80;;;;;;5081432;28;20051;-72
2023/11/26 12:37:59;;;;;;;4.80;3.60;;;18.80;41.40;;;;;;5084941;28;20055;-71
2023/11/26 12:40:31;;;;;;;5.57;3.45;;;16.30;46.10;;;;;;5078631;28;20134;-71
2023/11/26 12:42:59;;;;;;;5.72;3.83;;;10.40;52.90;;;;;;5081858;28;20044;-72
2023/11/26 12:45:26;;;;;;;4.45;3.28;;;11.60;53.90;;;;;;5079617;28;20060;-71
2023/11/26 12:47:56;;;;;;;3.60;2.83;;;11.20;51.40;;;;;;5085171;28;20356;-73
2023/11/26 12:50:24;;;;;;;5.23;3.00;;;12.80;52.20;;;;;;5085279;28;20039;-73
2023/11/26 12:52:52;;;;;;;5.40;2.78;;;12.90;49.50;;;;;;5065083;28;20044;-74
2023/11/26 12:55:19;;;;;;;5.55;3.38;;;12.80;49.90;;;;;;5079586;28;20024;-72
2023/11/26 12:57:47;;;;;;;5.65;3.38;;;14.80;49.00;;;;;;5083149;28;20062;-74
2023/11/26 13:00:14;;;;;;;5.30;2.72;;;13.80;48.60;;;;;;5078783;28;20051;-79
2023/11/26 13:02:46;;;;;;;4.72;2.78;;;12.70;49.30;;;;;;5084735;28;20047;-73
2023/11/26 13:05:29;;;;;;;4.60;3.22;;;10.50;53.60;;;;;;5080876;28;20039;-75
2023/11/26 13:07:59;;;;;;;5.25;3.47;;;10.20;55.30;;;;;;5080898;28;20043;-74
2023/11/26 13:10:50;;;;;;;4.18;3.50;;;10.00;56.50;;;;;;5083107;28;20112;-78
2023/11/26 13:13:24;;;;;;;4.28;3.35;;;9.10;57.70;;;;;;5082103;28;20056;-73
2023/11/26 13:15:51;;;;;;;4.18;3.67;;;8.40;59.70;;;;;;5082133;28;20085;-76
2023/11/26 13:18:19;;;;;;;4.85;3.90;;;7.70;61.10;;;;;;5083299;28;20055;-72
2023/11/26 13:20:49;;;;;;;5.60;4.20;;;7.00;63.50;;;;;;5081068;28;20052;-75
2023/11/26 13:23:22;;;;;;;5.28;4.40;;;6.80;65.10;;;;;;5086344;28;20039;-74
2023/11/26 13:25:54;;;;;;;4.50;4.10;;;6.70;66.30;;;;;;5086766;28;20529;-74
2023/11/26 13:28:23;;;;;;;5.18;4.65;;;6.70;66.90;;;;;;5064393;28;20029;-74
2023/11/26 13:30:51;;;;;;;8.95;5.05;;;6.60;67.70;;;;;;5080699;28;20641;-73
2023/11/26 13:33:19;;;;;;;7.30;5.32;;;6.60;68.30;;;;;;5082612;28;20081;-72
2023/11/26 13:35:49;;;;;;;6.97;5.20;;;6.40;69.40;;;;;;5082260;28;20048;-75
2023/11/26 13:38:17;;;;;;;5.50;4.95;;;6.30;70.00;;;;;;5082116;28;20033;-74
2023/11/26 13:40:47;;;;;;;7.28;5.30;;;6.40;70.40;;;;;;5083430;28;20447;-71
2023/11/26 13:43:20;;;;;;;7.75;5.47;;;6.20;71.40;;;;;;5085103;28;20379;-75
2023/11/26 13:45:48;;;;;;;5.47;4.88;;;6.10;70.50;;;;;;5084425;28;20040;-73
2023/11/26 13:48:17;;;;;;;6.43;5.20;;;6.10;70.90;;;;;;5082989;28;20039;-83
2023/11/26 13:50:44;;;;;;;13.85;8.60;;;6.00;71.60;;;;;;5084443;28;20044;-72
2023/11/26 13:53:12;;;;;;;7.43;5.80;;;6.10;71.80;;;;;;5079260;28;20038;-73
2023/11/26 13:55:39;;;;;;;5.75;5.18;;;6.00;71.40;;;;;;5080099;28;20051;-73
2023/11/26 13:58:07;;;;;;;6.47;5.75;;;6.00;72.50;;;;;;5078309;28;20043;-73
2023/11/26 14:00:35;;;;;;;6.05;5.45;;;6.10;71.70;;;;;;5075555;28;20043;-74
2023/11/26 14:03:04;;;;;;;6.20;5.47;;;6.10;71.80;;;;;;5085363;28;20040;-78
2023/11/26 14:05:32;;;;;;;6.15;5.53;;;6.00;72.50;;;;;;5086389;28;20070;-76
2023/11/26 14:07:59;;;;;;;5.95;5.32;;;6.10;73.10;;;;;;5082559;28;20040;-74
2023/11/26 14:10:26;;;;;;;7.18;5.50;;;6.10;73.10;;;;;;5081007;28;20055;-75
2023/11/26 14:13:07;;;;;;;9.82;5.72;;;6.10;73.50;;;;;;5083775;28;20044;-72
2023/11/26 14:15:35;;;;;;;;;;;6.10;74.00;;;;;;5082427;28;20040;-73
2023/11/26 14:18:03;;;;;;;6.05;5.45;;;6.10;74.60;;;;;;5078418;28;20080;-74
2023/11/26 14:20:37;;;;;;;6.35;5.35;;;6.10;74.40;;;;;;5062601;28;20041;-72
2023/11/26 14:23:06;;;;;;;6.18;5.57;;;6.10;73.90;;;;;;5086874;28;20051;-79
2023/11/26 14:25:34;;;;;;;6.72;5.60;;;6.10;74.20;;;;;;5064560;28;20047;-74
2023/11/26 14:28:02;;;;;;;9.95;5.82;;;6.20;74.50;;;;;;5085058;28;20064;-73
2023/11/26 14:30:30;;;;;;;7.05;5.28;;;6.10;74.90;;;;;;5082772;28;20029;-74
2023/11/26 14:32:58;;;;;;;7.63;5.18;;;6.20;74.90;;;;;;5089540;28;20158;-74
2023/11/26 14:35:26;;;;;;;7.65;5.18;;;6.10;75.10;;;;;;5084241;28;20029;-72
2023/11/26 14:37:53;;;;;;;5.85;4.95;;;6.10;74.90;;;;;;5085714;28;20032;-74
2023/11/26 14:40:21;;;;;;;5.20;4.70;;;6.10;75.10;;;;;;5082474;28;20447;-71
2023/11/26 14:42:49;;;;;;;6.28;5.20;;;6.10;74.90;;;;;;5087990;28;20055;-71
2023/11/26 14:45:16;;;;;;;10.15;6.35;;;6.20;76.00;;;;;;5083828;28;20120;-73
2023/11/26 14:47:46;;;;;;;10.75;6.57;;;6.00;76.40;;;;;;5085140;28;20111;-73
2023/11/26 14:50:13;;;;;;;8.95;6.78;;;5.50;77.80;;;;;;5083830;28;20423;-72
2023/11/26 14:52:41;;;;;;;10.00;7.28;;;5.20;79.40;;;;;;5084621;28;20032;-71
2023/11/26 14:55:14;;;;;;;9.55;6.80;;;5.30;79.20;;;;;;5082966;28;20072;-75
2023/11/26 14:57:42;;;;;;;10.10;6.82;;;5.50;79.40;;;;;;5086197;28;20485;-71
2023/11/26 15:00:12;;;;;;;7.30;6.38;;;5.50;78.90;;;;;;5088222;28;20044;-72
2023/11/26 15:02:39;;;;;;;8.18;5.63;;;5.10;78.60;;;;;;5086829;28;20021;-71
2023/11/26 15:05:07;;;;;;;7.22;6.18;;;5.20;78.40;;;;;;5085083;28;20079;-72
2023/11/26 15:07:35;;;;;;;7.68;6.05;;;5.30;79.10;;;;;;5082378;28;20507;-74
2023/11/26 15:10:04;;;;;;;10.70;6.82;;;5.30;79.10;;;;;;5083981;28;20762;-73
2023/11/26 15:12:33;;;;;;;7.95;6.47;;;5.10;78.20;;;;;;5088103;28;20398;-73
2023/11/26 15:15:03;;;;;;;8.82;6.75;;;5.00;78.00;;;;;;5085569;28;20024;-78
2023/11/26 15:17:30;;;;;;;11.93;7.07;;;4.90;78.90;;;;;;5087850;28;20040;-73
2023/11/26 15:19:58;;;;;;;9.15;7.30;;;4.90;78.90;;;;;;5088041;28;20475;-71
2023/11/26 15:22:25;;;;;;;9.18;7.53;;;5.00;79.00;;;;;;5088819;28;20028;-72
2023/11/26 15:24:52;;;;;;;9.98;7.65;;;5.00;78.60;;;;;;5088335;28;20503;-72
2023/11/26 15:27:20;;;;;;;10.65;7.97;;;4.90;78.80;;;;;;5091015;28;20032;-73
2023/11/26 15:29:47;;;;;;;11.13;8.50;;;4.90;79.00;;;;;;5088549;28;20047;-71
2023/11/26 15:32:15;;;;;;;12.23;8.98;;;5.00;79.70;;;;;;5085361;28;20498;-76
2023/11/26 15:34:44;;;;;;;12.32;9.25;;;4.90;80.10;;;;;;5074061;28;20039;-74
2023/11/26 15:37:12;;;;;;;15.35;10.32;;;5.00;83.80;;;;;;5072926;28;20040;-81
2023/11/26 15:39:40;;;;;;;21.98;12.82;;;5.10;83.80;;;;;;5084641;28;20467;-82
2023/11/26 15:42:07;;;;;;;18.35;12.60;;;5.10;84.00;;;;;;5083773;28;20440;-73
2023/11/26 15:44:35;;;;;;;42.85;26.02;;;5.20;84.40;;;;;;5099295;28;20048;-73
2023/11/26 15:47:04;;;;;;;37.05;24.15;;;5.40;84.30;;;;;;5083845;28;20048;-74
2023/11/26 15:49:37;;;;;;;12.23;10.43;;;5.20;83.70;;;;;;5088261;28;20125;-77
2023/11/26 15:52:05;;;;;;;12.73;8.35;;;5.00;81.70;;;;;;5079989;28;20283;-76
2023/11/26 15:54:33;;;;;;;13.80;6.93;;;5.00;77.50;;;;;;5087616;28;20474;-80
2023/11/26 15:57:00;;;;;;;9.95;7.40;;;5.20;72.60;;;;;;5083121;28;20029;-73
2023/11/26 15:59:28;;;;;;;11.13;8.50;;;5.30;72.60;;;;;;5080985;28;20463;-74
2023/11/26 16:01:57;;;;;;;9.63;7.35;;;5.30;74.00;;;;;;5084253;28;20036;-70
2023/11/26 16:04:25;;;;;;;9.73;7.40;;;5.40;70.90;;;;;;5085121;28;20064;-73
2023/11/26 16:06:52;;;;;;;14.27;9.07;;;5.50;72.40;;;;;;5080871;28;20037;-70
2023/11/26 16:09:20;;;;;;;9.40;7.82;;;5.50;72.30;;;;;;5083690;28;20028;-68
2023/11/26 16:11:47;;;;;;;12.98;8.25;;;5.40;72.10;;;;;;5084338;28;20039;-65
2023/11/26 16:14:14;;;;;;;17.45;12.02;;;5.40;73.00;;;;;;5080427;28;20434;-71
2023/11/26 16:16:42;;;;;;;9.98;8.00;;;5.40;73.20;;;;;;5087834;28;20219;-68
2023/11/26 16:19:10;;;;;;;9.60;7.13;;;5.30;73.80;;;;;;5083525;28;20511;-74
2023/11/26 16:21:43;;;;;;;6.43;5.80;;;5.30;71.20;;;;;;5081854;28;20071;-67
2023/11/26 16:24:10;;;;;;;8.65;6.05;;;5.30;70.80;;;;;;5087993;28;20029;-68
2023/11/26 16:26:41;;;;;;;6.15;5.55;;;5.30;70.70;;;;;;5064203;28;20530;-69
2023/11/26 16:29:08;;;;;;;7.95;6.20;;;5.30;70.90;;;;;;5080266;28;20097;-69
2023/11/26 16:31:41;;;;;;;6.57;5.65;;;5.30;71.80;;;;;;5081783;28;20037;-72
2023/11/26 16:34:08;;;;;;;10.35;7.70;;;5.30;70.60;;;;;;5085180;28;20028;-73
2023/11/26 16:36:35;;;;;;;13.27;8.98;;;5.20;73.20;;;;;;5090083;28;20036;-71
2023/11/26 16:39:08;;;;;;;12.98;10.02;;;5.10;75.60;;;;;;5086685;28;20036;-74
2023/11/26 16:41:37;;;;;;;14.75;10.85;;;5.00;76.10;;;;;;5080102;28;20607;-70
2023/11/26 16:44:04;;;;;;;14.18;9.52;;;5.00;77.60;;;;;;5084239;28;20085;-67
2023/11/26 16:46:32;;;;;;;8.63;7.00;;;5.10;75.40;;;;;;5084322;28;20497;-69
2023/11/26 16:49:02;;;;;;;6.72;5.53;;;5.10;73.20;;;;;;5088858;28;20028;-73
2023/11/26 16:51:30;;;;;;;5.50;5.00;;;5.30;70.60;;;;;;5083295;28;20085;-72
2023/11/26 16:53:57;;;;;;;6.50;5.40;;;5.40;69.40;;;;;;5082431;28;20126;-72
2023/11/26 16:56:26;;;;;;;33.20;23.33;;;5.60;70.00;;;;;;5085130;28;20387;-72
2023/11/26 16:58:54;;;;;;;11.30;8.88;;;5.60;71.50;;;;;;5088511;28;20034;-76
2023/11/26 17:01:21;;;;;;;6.25;5.65;;;5.50;70.10;;;;;;5063106;28;20632;-70
2023/11/26 17:03:49;;;;;;;5.38;4.88;;;5.60;69.50;;;;;;5088019;28;20353;-71
2023/11/26 17:06:16;;;;;;;5.40;4.90;;;5.50;69.70;;;;;;5086993;28;20031;-69
2023/11/26 17:08:44;;;;;;;7.70;5.10;;;5.50;69.80;;;;;;5082687;28;20134;-71
2023/11/26 17:11:13;;;;;;;7.78;4.45;;;5.40;69.30;;;;;;5064356;28;20028;-70
2023/11/26 17:13:42;;;;;;;5.47;4.80;;;5.40;70.00;;;;;;5085883;28;20432;-68
2023/11/26 17:16:13;;;;;;;5.38;4.75;;;5.30;70.20;;;;;;5080454;28;20119;-70
2023/11/26 17:18:42;;;;;;;5.35;4.85;;;5.20;70.60;;;;;;5086484;28;20028;-71
2023/11/26 17:21:10;;;;;;;5.65;5.10;;;5.20;71.40;;;;;;5082854;28;20040;-75
2023/11/26 17:23:38;;;;;;;5.72;5.15;;;5.10;71.80;;;;;;5084838;28;20036;-75
2023/11/26 17:26:05;;;;;;;6.82;4.97;;;5.00;71.70;;;;;;5082855;28;20036;-71
2023/11/26 17:28:33;;;;;;;10.88;5.22;;;5.00;71.40;;;;;;5084166;28;20074;-74
2023/11/26 17:31:00;;;;;;;5.88;5.20;;;5.00;72.50;;;;;;5065225;28;20425;-72
2023/11/26 17:33:27;;;;;;;5.90;5.30;;;4.90;73.00;;;;;;5082800;28;20486;-74
2023/11/26 17:35:54;;;;;;;6.03;5.25;;;4.80;72.70;;;;;;5086711;28;20077;-74
2023/11/26 17:38:22;;;;;;;6.38;5.47;;;4.80;72.40;;;;;;5081748;28;20394;-72
2023/11/26 17:41:07;;;;;;;6.18;5.28;;;4.80;72.80;;;;;;5085221;28;20032;-73
2023/11/26 17:43:34;;;;;;;6.45;5.80;;;4.70;72.60;;;;;;5081276;28;20044;-73
2023/11/26 17:46:02;;;;;;;9.40;6.07;;;4.70;73.20;;;;;;5081196;28;20105;-73
2023/11/26 17:48:29;;;;;;;7.55;5.90;;;4.60;73.30;;;;;;5086063;28;20082;-73
2023/11/26 17:50:57;;;;;;;12.88;8.93;;;4.60;73.90;;;;;;5085180;28;20040;-79
2023/11/26 17:53:24;;;;;;;7.13;6.22;;;4.50;74.60;;;;;;5090356;28;20398;-78
2023/11/26 17:55:52;;;;;;;12.13;8.40;;;4.60;75.80;;;;;;5067175;28;20040;-81
2023/11/26 17:58:19;;;;;;;15.82;10.63;;;4.70;73.70;;;;;;5085504;28;20029;-76
2023/11/26 18:00:48;;;;;;;9.88;7.82;;;4.90;71.80;;;;;;5081700;28;20063;-74
2023/11/26 18:03:15;;;;;;;6.63;6.03;;;4.80;72.00;;;;;;5086273;28;20111;-73
2023/11/26 18:05:43;;;;;;;6.38;5.75;;;4.70;70.30;;;;;;5102684;28;20058;-73
2023/11/26 18:08:11;;;;;;;7.03;5.82;;;4.60;71.20;;;;;;5068517;28;20484;-72
2023/11/26 18:10:38;;;;;;;8.18;5.88;;;4.50;72.50;;;;;;5087659;28;20043;-75
2023/11/26 18:13:06;;;;;;;7.68;5.50;;;4.40;71.80;;;;;;5079146;28;20032;-76
2023/11/26 18:15:33;;;;;;;6.50;5.40;;;4.50;68.00;;;;;;5083593;28;20484;-75
2023/11/26 18:18:00;;;;;;;6.45;5.68;;;4.70;65.10;;;;;;5085495;28;20032;-75
2023/11/26 18:20:28;;;;;;;7.30;5.50;;;4.60;64.40;;;;;;5084367;28;20482;-76
2023/11/26 18:22:55;;;;;;;5.38;4.88;;;4.70;64.10;;;;;;5088131;28;20067;-75
2023/11/26 18:25:22;;;;;;;7.88;5.18;;;4.80;62.90;;;;;;5088916;28;20113;-72
2023/11/26 18:27:50;;;;;;;5.63;4.80;;;4.90;62.90;;;;;;5091383;28;20032;-74
2023/11/26 18:30:18;;;;;;;5.50;5.00;;;4.80;62.40;;;;;;5092455;28;20032;-74
2023/11/26 18:32:45;;;;;;;5.45;4.95;;;4.80;62.50;;;;;;5087236;28;20584;-75
2023/11/26 18:35:13;;;;;;;5.50;4.90;;;4.70;62.60;;;;;;5092412;28;20383;-74
2023/11/26 18:37:40;;;;;;;115.50;51.22;;;4.70;62.60;;;;;;5087467;28;20028;-75
2023/11/26 18:40:10;;;;;;;11.13;9.93;;;4.70;63.80;;;;;;5066415;28;20048;-73
2023/11/26 18:42:38;;;;;;;;;;;4.80;63.80;;;;;;5085285;28;20055;-78
2023/11/26 18:45:08;;;;;;;6.35;5.75;;;4.80;62.70;;;;;;5086335;28;19924;-79
2023/11/26 18:47:40;;;;;;;7.35;4.93;;;4.80;62.90;;;;;;5086328;28;20395;-76
2023/11/26 18:50:08;;;;;;;5.30;4.70;;;4.80;63.20;;;;;;5090581;28;20068;-76
2023/11/26 18:52:36;;;;;;;5.20;4.70;;;4.80;62.70;;;;;;5089783;28;20048;-79
2023/11/26 18:55:04;;;;;;;14.10;9.20;;;4.70;62.90;;;;;;5089017;28;20040;-77
2023/11/26 18:57:31;;;;;;;32.42;19.08;;;4.90;63.50;;;;;;5082513;28;20596;-75
2023/11/26 18:59:59;;;;;;;6.50;5.90;;;4.80;64.20;;;;;;5069502;28;20044;-76
2023/11/26 19:02:26;;;;;;;5.68;5.18;;;4.70;63.60;;;;;;5071142;28;20066;-74
2023/11/26 19:04:54;;;;;;;5.20;4.70;;;4.60;63.10;;;;;;5082842;28;20052;-74
2023/11/26 19:07:21;;;;;;;5.22;4.72;;;4.60;63.60;;;;;;5061511;28;20128;-74
2023/11/26 19:09:48;;;;;;;5.30;4.80;;;4.50;63.70;;;;;;5083290;28;20094;-75
2023/11/26 19:12:16;;;;;;;5.78;4.95;;;4.50;63.70;;;;;;5084742;28;20111;-76
2023/11/26 19:14:45;;;;;;;5.78;4.85;;;4.50;63.80;;;;;;5086360;28;20031;-76
2023/11/26 19:17:13;;;;;;;5.30;4.78;;;4.60;63.50;;;;;;5088165;28;20039;-77
2023/11/26 19:19:40;;;;;;;5.63;5.10;;;4.40;64.20;;;;;;5079353;28;20082;-77
2023/11/26 19:22:08;;;;;;;5.10;4.60;;;4.40;63.80;;;;;;5084288;28;20419;-78
2023/11/26 19:24:36;;;;;;;5.55;4.90;;;4.40;63.90;;;;;;5085145;28;20244;-74
2023/11/26 19:27:06;;;;;;;5.70;5.20;;;4.50;63.40;;;;;;5098870;28;20115;-77
2023/11/26 19:29:34;;;;;;;5.88;5.38;;;4.40;63.40;;;;;;5086137;28;20289;-77
2023/11/26 19:32:01;;;;;;;5.68;5.10;;;4.40;63.20;;;;;;5090835;28;20028;-75
2023/11/26 19:34:29;;;;;;;5.15;4.65;;;4.50;63.50;;;;;;5081347;28;20446;-78
2023/11/26 19:36:56;;;;;;;4.85;4.40;;;4.60;63.10;;;;;;5086824;28;20044;-77
2023/11/26 19:39:24;;;;;;;6.38;4.82;;;4.60;62.80;;;;;;5083065;28;20103;-79
2023/11/26 19:41:53;;;;;;;5.17;4.67;;;4.70;63.70;;;;;;5071039;28;20093;-79
2023/11/26 19:44:22;;;;;;;135.73;62.88;;;4.60;63.00;;;;;;5079500;28;20284;-79
2023/11/26 19:46:50;;;;;;;9.75;8.80;;;4.60;65.60;;;;;;5085781;28;20479;-78
2023/11/26 19:49:17;;;;;;;6.07;5.47;;;4.60;63.70;;;;;;5068450;28;20036;-79
2023/11/26 19:51:45;;;;;;;6.70;5.55;;;4.50;63.30;;;;;;5080829;28;20046;-76
2023/11/26 19:54:13;;;;;;;5.60;5.10;;;4.40;63.70;;;;;;5082882;28;20071;-78
2023/11/26 19:56:40;;;;;;;5.63;5.00;;;4.30;64.80;;;;;;5087307;28;20044;-80
2023/11/26 19:59:07;;;;;;;5.47;4.90;;;4.30;64.70;;;;;;5084563;28;20032;-77
2023/11/26 20:01:52;;;;;;;5.57;5.00;;;4.30;65.10;;;;;;5083825;28;20025;-78
2023/11/26 20:04:20;;;;;;;7.25;5.30;;;4.30;64.80;;;;;;5081230;28;20040;-77
2023/11/26 20:06:49;;;;;;;7.45;5.13;;;4.50;66.30;;;;;;5082710;28;20098;-75
2023/11/26 20:09:17;;;;;;;6.70;5.05;;;4.40;65.00;;;;;;5086440;28;20039;-77
2023/11/26 20:11:47;;;;;;;4.80;4.40;;;4.20;65.00;;;;;;5070455;28;20466;-78
2023/11/26 20:14:16;;;;;;;6.03;5.13;;;4.10;65.50;;;;;;5085614;28;20044;-73
2023/11/26 20:16:44;;;;;;;5.60;5.07;;;4.10;65.90;;;;;;5084230;28;20039;-78
2023/11/26 20:19:12;;;;;;;5.47;4.93;;;4.10;66.00;;;;;;5084273;28;20489;-77
2023/11/26 20:21:40;;;;;;;5.18;4.68;;;4.00;66.30;;;;;;5085496;28;20106;-79
2023/11/26 20:24:08;;;;;;;5.30;4.80;;;4.00;65.60;;;;;;5084827;28;20043;-79
2023/11/26 20:26:36;;;;;;;5.53;4.85;;;4.10;65.80;;;;;;5078184;28;20044;-77
2023/11/26 20:29:03;;;;;;;5.32;4.82;;;4.10;66.10;;;;;;5061836;28;20122;-76
2023/11/26 20:31:31;;;;;;;5.53;5.00;;;4.10;66.60;;;;;;5084705;28;20032;-77
2023/11/26 20:34:00;;;;;;;6.20;5.60;;;4.10;66.40;;;;;;5090536;28;20040;-76
2023/11/26 20:36:33;;;;;;;6.43;5.80;;;4.10;66.60;;;;;;5080138;28;20036;-80
2023/11/26 20:39:01;;;;;;;6.53;5.32;;;4.20;66.80;;;;;;5081462;28;20107;-77
2023/11/26 20:41:31;;;;;;;6.22;5.20;;;4.20;66.80;;;;;;5068639;28;20474;-80
2023/11/26 20:43:59;;;;;;;;;;;4.30;67.20;;;;;;5100015;28;20173;-76
2023/11/26 20:46:26;;;;;;;5.40;4.90;;;4.30;66.60;;;;;;5068385;28;19920;-76
2023/11/26 20:48:54;;;;;;;6.07;5.32;;;4.20;66.10;;;;;;5085846;28;20044;-75
2023/11/26 20:51:25;;;;;;;6.95;5.60;;;4.10;67.00;;;;;;5075997;28;20040;-80
2023/11/26 20:53:55;;;;;;;6.68;5.47;;;4.30;66.70;;;;;;5066729;28;20123;-79
2023/11/26 20:56:26;;;;;;;53.47;25.98;;;4.20;66.40;;;;;;5079647;28;20060;-77
2023/11/26 20:58:55;;;;;;;18.45;11.70;;;4.30;69.20;;;;;;5082346;28;20031;-76
2023/11/26 21:01:23;;;;;;;6.38;5.43;;;4.30;68.20;;;;;;5081350;28;20061;-75
2023/11/26 21:03:51;;;;;;;6.20;5.60;;;4.10;67.70;;;;;;5090227;28;20210;-74
2023/11/26 21:06:19;;;;;;;6.63;5.22;;;4.00;68.80;;;;;;5082480;28;20032;-76
2023/11/26 21:08:47;;;;;;;5.85;5.25;;;4.10;68.70;;;;;;5068065;28;20072;-76
2023/11/26 21:11:14;;;;;;;5.75;5.22;;;4.10;68.30;;;;;;5089485;28;20036;-74
2023/11/26 21:13:42;;;;;;;5.10;4.60;;;4.00;66.80;;;;;;5084488;28;20135;-77
2023/11/26 21:16:09;;;;;;;5.55;5.05;;;4.10;66.30;;;;;;5081417;28;20068;-75